Portada
METAR-TAF:

METAR-TAF

Aeroports :

Bíldudalur, Islàndia

latitud: 65-38-30N, longitud: 23-32-45W, altitud: 8 m

Observació

L'informe es va fer fa 15 hores i 39 minuts, a les 17:31 UTC
Vent 8 kt del Nord
Temperatura 9°C
Humitat 57%
Pressió 1010 hPa
Visibilitat 10 km o més
Escasses núvols a una alçada de 2000 ft
Cel ennuvolat a una alçada de 3000 ft

METAR: BIBD 181731Z 01008KT 9999 FEW020 BKN030 09/01 Q1010

Hora: 09:10 (09:10 UTC)

Pronòstic

L'informe es va fer fa 19 hores i 41 minuts, a les 13:29 UTC
Pronòstic vàlid del 18 a les 14 UTC al 18 a les 23 UTC
Vent 14 kt del Nord
Visibilitat 10 km o més
Escasses núvols a una alçada de 2200 ft
Cel ennuvolat a una alçada de 4000 ft

TAF: BIBD 181329Z 1814/1823 35014KT 9999 FEW022 BKN040

Observacions i pronòstics meteorològics de més de 4000 aeroports (METAR i TAF).

Les estacions disponibles són els punts grocs i vermells al mapa.

Posi el ratolí al punt desitjat per veure el nom de l'estació.

Feu clic per veure les observacions i els pronòstics meteorològics.

Per canviar el mapa: feu clic els botons verds amb una creu de color negre per apropar; al botó verd amb un guió per allunyar la imatge; o en les fletxes verdes per a mapes adjacents.


METAR-TAF: